Keystone, South Dakota
Current Conditions -  °F | °C
As of 10:53 AM on Tuesday 21 Oct 2014 (Local Time) from KCUT Reporting Station
Clear Clear  
Wind Chill: 67°   Ceiling: Unl
Heat Index: 67°   Visibility: 10mi
Dew Point: 38°   Wind: 14mph
Humidity: 34%   Direction: 240°WSW
Pressure: 29.94"   Gusts: 21mph
Location:  43.9°N, 103.42°W
Report Text: KCUT 211653Z AUTO 24012G18KT 10SM CLR 19/03 A2994 RMK AO2 SLP083 T01940033
Loading
Personal Weather Stations






























Interactive Weather Map
Tropical Storm Tracking
New forecast layout! Learn more

10-Day Weather Forecast

Advertisements
Track Severe Weather on mobile